Time;durP1;ratioP1;P1;durP2;ratioP2;P2;SDS_P1;SDS_P2;PMS_P1;PMS_P2;Temp;Humidity;BMP_temperature;BMP_pressure;BME280_temperature;BME280_humidity;BME280_pressure;Samples;Min_cycle;Max_cycle;Signal;HPM_P1;HPM_P2
2022/08/21 00:01:46;;;;;;;2.17;1.40;;;22.60;57.60;;;;;;5070699;28;20462;-80
2022/08/21 00:04:16;;;;;;;2.83;1.50;;;22.60;55.00;;;;;;5071004;28;20565;-80
2022/08/21 00:06:49;;;;;;;1.50;1.40;;;22.60;56.00;;;;;;5060817;28;20463;-81
2022/08/21 00:09:19;;;;;;;1.93;1.77;;;22.50;54.90;;;;;;5070106;28;20462;-81
2022/08/21 00:11:48;;;;;;;2.20;1.30;;;22.50;51.80;;;;;;5060066;28;20488;-81
2022/08/21 00:14:17;;;;;;;1.80;1.30;;;22.50;52.90;;;;;;5067196;28;20494;-80
2022/08/21 00:16:45;;;;;;;2.40;1.27;;;22.50;52.10;;;;;;5070582;28;20526;-81
2022/08/21 00:19:13;;;;;;;6.33;1.30;;;22.40;54.20;;;;;;5070395;28;20462;-81
2022/08/21 00:21:43;;;;;;;3.10;1.77;;;22.40;54.10;;;;;;5068344;28;20505;-82
2022/08/21 00:24:12;;;;;;;2.57;1.90;;;22.40;53.30;;;;;;5068095;28;20469;-80
2022/08/21 00:26:40;;;;;;;1.73;1.60;;;22.30;52.90;;;;;;5056852;28;20461;-81
2022/08/21 00:29:08;;;;;;;3.83;1.60;;;22.30;54.30;;;;;;5069070;28;21067;-81
2022/08/21 00:31:36;;;;;;;2.03;1.40;;;22.20;54.20;;;;;;5070184;28;20470;-80
2022/08/21 00:34:05;;;;;;;3.50;1.60;;;22.20;54.90;;;;;;5070454;28;21006;-80
2022/08/21 00:36:33;;;;;;;3.07;1.63;;;22.20;55.30;;;;;;5069900;28;20470;-81
2022/08/21 00:39:04;;;;;;;2.50;1.77;;;22.20;53.90;;;;;;5066040;28;20464;-80
2022/08/21 00:41:32;;;;;;;2.63;1.50;;;22.20;51.40;;;;;;5064592;28;20450;-81
2022/08/21 00:44:07;;;;;;;4.03;1.60;;;22.10;51.70;;;;;;5067018;28;20483;-80
2022/08/21 00:46:37;;;;;;;1.90;1.50;;;22.10;52.60;;;;;;5066820;28;20461;-80
2022/08/21 00:49:06;;;;;;;3.17;1.40;;;22.10;51.70;;;;;;5069594;28;20553;-81
2022/08/21 00:51:39;;;;;;;1.50;1.40;;;22.10;52.80;;;;;;5070089;28;20493;-80
2022/08/21 00:54:10;;;;;;;3.50;1.37;;;22.00;53.30;;;;;;5069829;28;21017;-81
2022/08/21 00:56:47;;;;;;;3.27;1.70;;;22.00;52.30;;;;;;5060940;28;20469;-80
2022/08/21 00:59:17;;;;;;;2.87;1.73;;;22.00;52.00;;;;;;5065396;28;20462;-80
2022/08/21 01:01:45;;;;;;;1.90;1.67;;;21.90;53.90;;;;;;5070064;28;20459;-80
2022/08/21 01:04:14;;;;;;;1.73;1.60;;;21.90;52.70;;;;;;5069733;28;20478;-81
2022/08/21 01:06:42;;;;;;;4.73;1.90;;;21.90;52.90;;;;;;5069934;28;20454;-80
2022/08/21 01:09:12;;;;;;;3.13;1.47;;;21.90;53.50;;;;;;5069384;28;20517;-80
2022/08/21 01:11:42;;;;;;;5.73;2.23;;;21.80;52.90;;;;;;5067794;28;20482;-81
2022/08/21 01:14:11;;;;;;;1.70;1.40;;;21.80;52.70;;;;;;5062018;28;20481;-81
2022/08/21 01:16:43;;;;;;;2.27;1.47;;;21.80;54.20;;;;;;5069773;28;20533;-81
2022/08/21 01:19:12;;;;;;;2.30;1.70;;;21.80;53.20;;;;;;5069982;28;20584;-81
2022/08/21 01:21:42;;;;;;;5.67;1.33;;;21.70;52.30;;;;;;5070337;28;20454;-81
2022/08/21 01:24:12;;;;;;;1.63;1.53;;;21.80;52.70;;;;;;5070460;28;20561;-80
2022/08/21 01:26:40;;;;;;;1.90;1.80;;;21.70;51.90;;;;;;5069448;28;20481;-80
2022/08/21 01:29:15;;;;;;;3.77;1.93;;;21.70;51.90;;;;;;5069542;28;20439;-80
2022/08/21 01:31:44;;;;;;;2.70;1.63;;;21.70;51.60;;;;;;5056170;28;20454;-80
2022/08/21 01:34:12;;;;;;;3.60;1.60;;;21.60;54.20;;;;;;5069447;28;20470;-80
2022/08/21 01:36:42;;;;;;;3.30;2.80;;;21.60;52.70;;;;;;5068526;28;20454;-80
2022/08/21 01:39:10;;;;;;;1.57;1.40;;;21.60;53.60;;;;;;5055958;28;21037;-80
2022/08/21 01:41:38;;;;;;;5.00;1.97;;;21.50;72.30;;;;;;5069286;28;20458;-81
2022/08/21 01:44:06;;;;;;;3.70;1.47;;;21.50;53.80;;;;;;5067751;28;20888;-80
2022/08/21 01:46:35;;;;;;;4.30;2.00;;;21.50;54.90;;;;;;5070117;28;20449;-81
2022/08/21 01:49:04;;;;;;;2.30;1.93;;;21.50;55.00;;;;;;5070220;28;20455;-80
2022/08/21 01:51:32;;;;;;;4.40;1.60;;;21.40;52.60;;;;;;5072103;28;20455;-81
2022/08/21 01:54:01;;;;;;;2.60;1.50;;;21.40;53.30;;;;;;5073191;28;20490;-80
2022/08/21 01:56:29;;;;;;;1.50;1.40;;;21.40;54.50;;;;;;5073840;28;20476;-80
2022/08/21 01:58:58;;;;;;;3.80;1.60;;;21.40;54.80;;;;;;5067866;28;20483;-80
2022/08/21 02:01:26;;;;;;;3.10;1.70;;;21.30;54.30;;;;;;5070133;28;20446;-80
2022/08/21 02:03:54;;;;;;;1.80;1.37;;;21.30;54.60;;;;;;5070842;28;20533;-80
2022/08/21 02:06:22;;;;;;;2.17;1.90;;;21.30;55.30;;;;;;5070766;28;20451;-81
2022/08/21 02:08:51;;;;;;;1.80;1.60;;;21.30;55.70;;;;;;5073094;28;20958;-80
2022/08/21 02:11:20;;;;;;;1.93;1.30;;;21.20;55.00;;;;;;5073812;28;20461;-80
2022/08/21 02:13:49;;;;;;;4.97;1.90;;;21.20;53.70;;;;;;5074453;28;20490;-80
2022/08/21 02:16:17;;;;;;;1.73;1.30;;;21.20;55.00;;;;;;5074602;28;20458;-80
2022/08/21 02:18:47;;;;;;;2.43;1.50;;;21.20;55.00;;;;;;5074564;28;20462;-81
2022/08/21 02:21:15;;;;;;;1.50;1.40;;;21.10;53.60;;;;;;5076414;28;20469;-80
2022/08/21 02:23:43;;;;;;;2.60;1.43;;;21.10;55.40;;;;;;5069259;28;20470;-80
2022/08/21 02:26:12;;;;;;;1.70;1.50;;;21.10;57.00;;;;;;5071524;28;20477;-80
2022/08/21 02:28:42;;;;;;;1.90;1.20;;;21.10;55.20;;;;;;5073213;28;20455;-80
2022/08/21 02:31:10;;;;;;;2.57;1.70;;;21.10;55.90;;;;;;5072931;28;20449;-81
2022/08/21 02:33:39;;;;;;;2.33;1.60;;;21.10;56.80;;;;;;5073254;28;20501;-80
2022/08/21 02:36:09;;;;;;;1.90;1.40;;;21.00;53.90;;;;;;5058571;28;20450;-80
2022/08/21 02:38:39;;;;;;;1.57;1.47;;;21.00;56.00;;;;;;5063114;28;20455;-80
2022/08/21 02:41:09;;;;;;;1.63;1.53;;;21.10;55.60;;;;;;5072359;28;20450;-80
2022/08/21 02:43:38;;;;;;;2.20;1.40;;;21.00;55.20;;;;;;5071240;28;20482;-80
2022/08/21 02:46:09;;;;;;;2.20;1.33;;;21.00;58.10;;;;;;5072084;28;20807;-81
2022/08/21 02:48:38;;;;;;;1.40;1.30;;;21.00;55.50;;;;;;5073120;28;20456;-80
2022/08/21 02:51:08;;;;;;;1.67;1.30;;;21.00;56.10;;;;;;5072650;28;20461;-80
2022/08/21 02:53:37;;;;;;;3.70;3.40;;;21.00;55.10;;;;;;5072849;28;20486;-80
2022/08/21 02:56:08;;;;;;;1.60;1.40;;;21.00;54.50;;;;;;5067441;28;20457;-81
2022/08/21 02:58:40;;;;;;;3.03;2.10;;;21.00;55.20;;;;;;5071875;28;20454;-80
2022/08/21 03:01:10;;;;;;;1.63;1.53;;;20.90;54.70;;;;;;5072481;28;21262;-80
2022/08/21 03:03:40;;;;;;;2.43;1.60;;;20.90;54.90;;;;;;5071985;28;20482;-80
2022/08/21 03:06:12;;;;;;;1.40;1.30;;;20.90;54.60;;;;;;5071960;28;20466;-81
2022/08/21 03:08:41;;;;;;;1.50;1.40;;;20.80;55.90;;;;;;5072077;28;20466;-80
2022/08/21 03:11:09;;;;;;;2.83;1.40;;;20.80;55.70;;;;;;5072658;28;20481;-81
2022/08/21 03:13:41;;;;;;;1.73;1.60;;;20.80;57.60;;;;;;5058958;28;21057;-80
2022/08/21 03:16:11;;;;;;;4.97;1.80;;;20.80;56.20;;;;;;5072622;28;20462;-80
2022/08/21 03:18:39;;;;;;;2.70;1.30;;;20.80;59.70;;;;;;5071998;28;20454;-81
2022/08/21 03:21:08;;;;;;;2.73;1.60;;;20.80;58.10;;;;;;5072135;28;20561;-81
2022/08/21 03:23:36;;;;;;;1.93;1.37;;;20.70;75.40;;;;;;5072607;28;20561;-80
2022/08/21 03:26:04;;;;;;;6.53;2.10;;;20.70;58.90;;;;;;5071821;28;20505;-80
2022/08/21 03:28:34;;;;;;;1.93;1.60;;;20.70;58.10;;;;;;5069820;28;20462;-80
2022/08/21 03:31:02;;;;;;;1.30;1.20;;;20.70;60.40;;;;;;5063945;28;21027;-80
2022/08/21 03:33:32;;;;;;;2.40;1.60;;;20.70;60.60;;;;;;5072135;28;20489;-81
2022/08/21 03:36:03;;;;;;;1.60;1.50;;;20.70;60.20;;;;;;5071802;28;20854;-80
2022/08/21 03:38:33;;;;;;;1.60;1.50;;;20.70;59.30;;;;;;5071238;28;20455;-80
2022/08/21 03:41:02;;;;;;;2.57;1.70;;;20.60;78.10;;;;;;5070341;28;20462;-80
2022/08/21 03:43:31;;;;;;;2.53;1.50;;;20.60;59.30;;;;;;5072124;28;20475;-81
2022/08/21 03:46:00;;;;;;;2.60;1.77;;;20.60;60.20;;;;;;5067322;28;20460;-80
2022/08/21 03:48:29;;;;;;;2.07;1.50;;;20.60;58.90;;;;;;5068450;28;20446;-80
2022/08/21 03:50:59;;;;;;;1.97;1.60;;;20.50;60.50;;;;;;5071590;28;20456;-80
2022/08/21 03:53:29;;;;;;;1.30;1.20;;;20.50;61.30;;;;;;5067819;28;20479;-80
2022/08/21 03:55:58;;;;;;;3.17;1.60;;;20.50;59.50;;;;;;5067015;28;21266;-80
2022/08/21 03:58:28;;;;;;;3.07;1.70;;;20.50;61.40;;;;;;5070063;28;20442;-80
2022/08/21 04:00:59;;;;;;;2.40;1.90;;;20.50;58.10;;;;;;5064991;28;20462;-80
2022/08/21 04:03:28;;;;;;;2.70;1.40;;;20.50;57.80;;;;;;5062543;28;20479;-80
2022/08/21 04:05:58;;;;;;;2.73;1.50;;;20.50;58.10;;;;;;5068127;28;20500;-80
2022/08/21 04:08:27;;;;;;;1.30;1.20;;;20.50;59.50;;;;;;5071219;28;20466;-80
2022/08/21 04:10:57;;;;;;;3.40;1.60;;;20.40;59.60;;;;;;5069511;28;20532;-80
2022/08/21 04:13:27;;;;;;;2.33;1.43;;;20.40;58.90;;;;;;5068008;28;20569;-80
2022/08/21 04:15:57;;;;;;;3.70;2.13;;;20.40;58.30;;;;;;5070552;28;20466;-80
2022/08/21 04:18:25;;;;;;;3.80;1.40;;;20.40;58.30;;;;;;5071346;28;20462;-80
2022/08/21 04:20:57;;;;;;;6.23;1.67;;;20.30;60.80;;;;;;5068825;28;20495;-81
2022/08/21 04:23:27;;;;;;;3.10;1.30;;;20.30;59.20;;;;;;5070718;28;21039;-80
2022/08/21 04:25:57;;;;;;;3.00;1.67;;;20.30;59.20;;;;;;5070997;28;20477;-81
2022/08/21 04:28:27;;;;;;;2.73;1.50;;;20.30;59.30;;;;;;5070052;28;20474;-81
2022/08/21 04:30:57;;;;;;;2.03;1.50;;;20.30;59.20;;;;;;5070915;28;20459;-80
2022/08/21 04:33:26;;;;;;;3.80;1.63;;;20.30;62.30;;;;;;5066572;28;20482;-81
2022/08/21 04:35:54;;;;;;;3.87;1.90;;;20.20;60.50;;;;;;5063294;28;20466;-79
2022/08/21 04:38:23;;;;;;;2.73;2.03;;;20.20;60.10;;;;;;5059264;28;20453;-80
2022/08/21 04:40:53;;;;;;;2.07;1.60;;;20.30;63.10;;;;;;5057527;28;20560;-80
2022/08/21 04:43:23;;;;;;;2.80;1.83;;;20.20;60.10;;;;;;5070667;28;20529;-81
2022/08/21 04:45:53;;;;;;;1.90;1.60;;;20.20;62.60;;;;;;5070419;28;20473;-81
2022/08/21 04:48:23;;;;;;;2.03;1.90;;;20.20;61.00;;;;;;5070165;28;20454;-81
2022/08/21 04:50:57;;;;;;;2.20;1.60;;;20.20;61.50;;;;;;5070347;28;20461;-80
2022/08/21 04:53:31;;;;;;;2.50;1.90;;;20.20;62.70;;;;;;5070149;28;20478;-80
2022/08/21 04:56:05;;;;;;;5.10;1.60;;;20.10;62.50;;;;;;5057481;28;20462;-80
2022/08/21 04:58:34;;;;;;;5.90;1.67;;;20.20;63.50;;;;;;5071096;28;20457;-81
2022/08/21 05:01:04;;;;;;;2.33;2.03;;;20.10;63.60;;;;;;5069280;28;20458;-80
2022/08/21 05:03:35;;;;;;;5.90;2.43;;;20.20;63.40;;;;;;5068382;28;20466;-81
2022/08/21 05:06:05;;;;;;;3.70;1.73;;;20.40;64.20;;;;;;5070115;28;20465;-80
2022/08/21 05:08:34;;;;;;;2.20;1.97;;;20.10;83.60;;;;;;5070452;28;20455;-80
2022/08/21 05:11:05;;;;;;;2.10;1.40;;;20.10;65.10;;;;;;5068974;28;20447;-80
2022/08/21 05:13:33;;;;;;;2.07;1.77;;;20.20;67.10;;;;;;5070104;28;20478;-81
2022/08/21 05:16:01;;;;;;;1.50;1.40;;;20.10;72.40;;;;;;5070450;28;20458;-80
2022/08/21 05:18:29;;;;;;;1.67;1.40;;;20.20;73.20;;;;;;5070445;28;20455;-80
2022/08/21 05:20:58;;;;;;;1.67;1.43;;;20.20;74.40;;;;;;5070786;28;20470;-80
2022/08/21 05:23:26;;;;;;;1.73;1.57;;;20.20;73.00;;;;;;5070493;28;20486;-80
2022/08/21 05:25:55;;;;;;;1.90;1.63;;;20.20;75.40;;;;;;5070249;28;20459;-80
2022/08/21 05:28:25;;;;;;;2.70;1.70;;;20.20;75.10;;;;;;5064109;28;20467;-80
2022/08/21 05:30:54;;;;;;;2.77;1.50;;;20.30;77.50;;;;;;5070427;28;20456;-80
2022/08/21 05:33:22;;;;;;;2.60;1.50;;;20.30;74.30;;;;;;5064869;28;20554;-80
2022/08/21 05:35:51;;;;;;;2.80;1.83;;;20.30;78.50;;;;;;5060024;28;21019;-80
2022/08/21 05:38:20;;;;;;;3.17;2.80;;;20.30;91.90;;;;;;5070477;28;20485;-80
2022/08/21 05:40:48;;;;;;;3.00;1.63;;;20.40;77.60;;;;;;5070778;28;20466;-80
2022/08/21 05:43:16;;;;;;;2.10;1.70;;;20.40;76.80;;;;;;5070493;28;20539;-80
2022/08/21 05:45:47;;;;;;;2.30;2.10;;;20.40;78.90;;;;;;5059495;28;20479;-80
2022/08/21 05:48:17;;;;;;;4.57;2.07;;;20.40;79.20;;;;;;5067674;28;20454;-80
2022/08/21 05:50:46;;;;;;;2.60;2.30;;;20.40;77.40;;;;;;5070014;28;20974;-80
2022/08/21 05:53:17;;;;;;;3.50;2.17;;;20.40;79.40;;;;;;5057138;28;20478;-81
2022/08/21 05:55:46;;;;;;;6.23;1.70;;;20.70;79.30;;;;;;5069663;28;20518;-81
2022/08/21 05:58:15;;;;;;;2.67;1.80;;;20.50;80.50;;;;;;5056738;28;21259;-82
2022/08/21 06:00:44;;;;;;;3.90;2.07;;;20.40;82.10;;;;;;5071889;28;20438;-80
2022/08/21 06:03:16;;;;;;;4.43;1.70;;;20.50;84.70;;;;;;5063195;28;20462;-80
2022/08/21 06:05:45;;;;;;;1.90;1.63;;;20.50;84.70;;;;;;5061213;28;20477;-80
2022/08/21 06:08:14;;;;;;;5.43;2.20;;;20.60;87.50;;;;;;5071920;28;21129;-80
2022/08/21 06:10:42;;;;;;;6.67;1.97;;;20.60;87.20;;;;;;5061273;28;20974;-80
2022/08/21 06:13:11;;;;;;;1.77;1.63;;;20.70;84.80;;;;;;5058838;28;20935;-80
2022/08/21 06:15:39;;;;;;;5.70;1.60;;;20.70;84.40;;;;;;5064473;28;20474;-80
2022/08/21 06:18:07;;;;;;;3.50;1.73;;;20.80;88.20;;;;;;5073162;28;20458;-81
2022/08/21 06:20:37;;;;;;;3.53;2.10;;;20.80;86.40;;;;;;5062103;28;21201;-80
2022/08/21 06:23:06;;;;;;;6.20;2.20;;;20.90;85.10;;;;;;5064828;28;20969;-81
2022/08/21 06:25:34;;;;;;;2.43;1.70;;;21.40;86.80;;;;;;5067486;28;20450;-80
2022/08/21 06:28:03;;;;;;;5.00;2.63;;;21.20;89.00;;;;;;5067503;28;20837;-80
2022/08/21 06:30:32;;;;;;;2.20;1.47;;;21.30;89.20;;;;;;5058269;28;20525;-81
2022/08/21 06:33:00;;;;;;;7.40;1.90;;;21.40;90.80;;;;;;5059196;28;20447;-80
2022/08/21 06:35:29;;;;;;;3.70;2.60;;;21.50;91.90;;;;;;5062112;28;20478;-80
2022/08/21 06:37:59;;;;;;;3.27;1.63;;;21.60;90.60;;;;;;5063588;28;20475;-80
2022/08/21 06:40:27;;;;;;;4.30;2.20;;;21.70;91.90;;;;;;5063701;28;20463;-80
2022/08/21 06:42:58;;;;;;;3.10;1.53;;;21.90;91.70;;;;;;5057691;28;21025;-81
2022/08/21 06:45:28;;;;;;;1.93;1.80;;;22.00;91.90;;;;;;5064555;28;20456;-81
2022/08/21 06:47:59;;;;;;;4.27;2.27;;;22.10;93.40;;;;;;5069354;28;20530;-80
2022/08/21 06:50:28;;;;;;;3.60;2.03;;;22.30;92.60;;;;;;5063341;28;20451;-80
2022/08/21 06:53:04;;;;;;;4.87;1.63;;;22.40;93.70;;;;;;5060918;28;20457;-81
2022/08/21 06:55:33;;;;;;;4.20;1.73;;;22.50;92.40;;;;;;5071121;28;21122;-81
2022/08/21 06:58:01;;;;;;;2.17;1.70;;;22.60;94.00;;;;;;5071814;28;20464;-80
2022/08/21 07:00:30;;;;;;;2.60;1.50;;;22.80;93.60;;;;;;5068506;28;20454;-81
2022/08/21 07:02:58;;;;;;;3.73;2.00;;;22.90;93.60;;;;;;5058491;28;20458;-81
2022/08/21 07:05:28;;;;;;;5.23;1.77;;;23.10;92.90;;;;;;5068989;28;20443;-80
2022/08/21 07:07:57;;;;;;;5.93;1.80;;;23.20;93.30;;;;;;5056018;28;20526;-81
2022/08/21 07:10:28;;;;;;;5.53;2.00;;;23.30;92.80;;;;;;5058920;28;20453;-81
2022/08/21 07:12:56;;;;;;;5.73;2.53;;;23.40;93.30;;;;;;5066392;28;20461;-80
2022/08/21 07:15:29;;;;;;;3.20;1.50;;;23.50;94.50;;;;;;5070034;28;20482;-80
2022/08/21 07:17:58;;;;;;;4.83;2.43;;;23.50;93.20;;;;;;5061424;28;20490;-81
2022/08/21 07:20:27;;;;;;;3.80;1.70;;;23.60;94.50;;;;;;5058206;28;20536;-81
2022/08/21 07:22:55;;;;;;;2.73;1.70;;;23.70;94.30;;;;;;5071457;28;20461;-81
2022/08/21 07:25:24;;;;;;;2.70;1.80;;;23.80;93.40;;;;;;5071234;28;20481;-81
2022/08/21 07:27:54;;;;;;;3.23;1.50;;;23.90;94.50;;;;;;5059937;28;20981;-81
2022/08/21 07:30:23;;;;;;;4.40;2.30;;;24.00;93.90;;;;;;5066299;28;20455;-81
2022/08/21 07:32:51;;;;;;;2.40;2.07;;;24.00;92.90;;;;;;5064602;28;20544;-81
2022/08/21 07:35:20;;;;;;;4.27;2.43;;;24.10;94.00;;;;;;5061266;28;20473;-81
2022/08/21 07:37:49;;;;;;;3.03;1.93;;;24.10;91.30;;;;;;5057761;28;20817;-81
2022/08/21 07:40:18;;;;;;;5.20;2.00;;;24.10;92.10;;;;;;5069802;28;20468;-81
2022/08/21 07:42:49;;;;;;;2.43;1.80;;;24.20;91.00;;;;;;5070119;28;20446;-81
2022/08/21 07:45:20;;;;;;;3.63;2.03;;;24.20;91.10;;;;;;5066034;28;20684;-80
2022/08/21 07:47:49;;;;;;;3.00;2.20;;;24.20;90.70;;;;;;5072286;28;20498;-81
2022/08/21 07:50:24;;;;;;;3.50;1.80;;;24.20;90.00;;;;;;5072024;28;20454;-81
2022/08/21 07:52:52;;;;;;;3.53;1.73;;;24.20;90.90;;;;;;5071511;28;20451;-81
2022/08/21 07:55:22;;;;;;;3.27;2.00;;;24.20;91.80;;;;;;5071561;28;20986;-81
2022/08/21 07:57:50;;;;;;;3.83;2.20;;;24.30;89.70;;;;;;5071752;28;20508;-82
2022/08/21 08:00:28;;;;;;;2.13;1.93;;;24.30;86.40;;;;;;5071079;28;20439;-81
2022/08/21 08:02:57;;;;;;;2.40;1.73;;;24.30;86.30;;;;;;5066075;28;20480;-81
2022/08/21 08:05:28;;;;;;;2.03;1.90;;;24.30;87.30;;;;;;5070807;28;20450;-81
2022/08/21 08:07:57;;;;;;;3.60;2.17;;;24.30;83.10;;;;;;5071221;28;21201;-81
2022/08/21 08:10:26;;;;;;;1.90;1.70;;;24.40;87.30;;;;;;5069971;28;20457;-81
2022/08/21 08:12:55;;;;;;;2.83;1.70;;;24.40;90.10;;;;;;5069962;28;20465;-80
2022/08/21 08:15:27;;;;;;;2.07;1.80;;;24.50;89.70;;;;;;5070158;28;20980;-81
2022/08/21 08:17:56;;;;;;;2.77;1.80;;;24.60;86.90;;;;;;5066799;28;20801;-81
2022/08/21 08:20:26;;;;;;;2.80;1.67;;;24.70;87.80;;;;;;5062372;28;20450;-81
2022/08/21 08:22:56;;;;;;;3.50;1.80;;;24.70;88.10;;;;;;5070194;28;20458;-81
2022/08/21 08:25:26;;;;;;;2.40;1.80;;;24.70;86.00;;;;;;5070278;28;20463;-81
2022/08/21 08:27:54;;;;;;;2.90;1.90;;;24.70;84.00;;;;;;5070189;28;20455;-80
2022/08/21 08:30:24;;;;;;;3.30;2.10;;;24.70;86.70;;;;;;5066907;28;20470;-80
2022/08/21 08:32:56;;;;;;;2.90;1.90;;;24.80;85.00;;;;;;5050386;28;20473;-81
2022/08/21 08:35:25;;;;;;;1.80;1.70;;;24.80;85.10;;;;;;5078897;28;20459;-81
2022/08/21 08:37:54;;;;;;;4.60;2.10;;;24.90;83.60;;;;;;5075956;28;20462;-81
2022/08/21 08:40:31;;;;;;;2.00;1.87;;;24.90;81.80;;;;;;5069678;28;20804;-80
2022/08/21 08:43:00;;;;;;;2.70;2.60;;;24.90;75.70;;;;;;5069652;28;20542;-80
2022/08/21 08:45:33;;;;;;;1.90;1.80;;;25.00;77.80;;;;;;5069908;28;20466;-81
2022/08/21 08:48:05;;;;;;;2.80;2.27;;;25.00;80.70;;;;;;5069889;28;20462;-81
2022/08/21 08:50:44;;;;;;;3.90;2.00;;;25.00;80.00;;;;;;5069816;28;20451;-81
2022/08/21 08:53:16;;;;;;;2.03;1.80;;;25.00;76.90;;;;;;5059192;28;20454;-81
2022/08/21 08:55:46;;;;;;;4.13;2.07;;;25.00;73.20;;;;;;5069015;28;20537;-81
2022/08/21 08:58:19;;;;;;;2.30;1.93;;;25.10;77.40;;;;;;5069416;28;20453;-81
2022/08/21 09:00:52;;;;;;;2.80;1.90;;;25.20;80.40;;;;;;5069183;28;20463;-81
2022/08/21 09:03:23;;;;;;;2.53;2.20;;;25.20;78.20;;;;;;5069529;28;20493;-80
2022/08/21 09:05:58;;;;;;;3.90;2.33;;;25.20;79.70;;;;;;5069282;28;20516;-81
2022/08/21 09:08:40;;;;;;;3.63;1.87;;;25.30;82.90;;;;;;5069527;28;20473;-81
2022/08/21 09:11:14;;;;;;;1.80;1.70;;;25.40;81.20;;;;;;5068441;28;20541;-81
2022/08/21 09:13:51;;;;;;;2.33;1.57;;;25.40;80.80;;;;;;5069791;28;20550;-81
2022/08/21 09:16:31;;;;;;;2.17;1.90;;;25.50;78.80;;;;;;5069236;28;20557;-80
2022/08/21 09:19:08;;;;;;;2.47;1.80;;;25.50;80.50;;;;;;5069184;28;20461;-81
2022/08/21 09:21:46;;;;;;;2.10;1.90;;;25.50;81.30;;;;;;5068932;28;20446;-80
2022/08/21 09:24:32;;;;;;;2.70;2.00;;;25.60;77.00;;;;;;5068928;28;20510;-81
2022/08/21 09:27:07;;;;;;;4.40;1.73;;;25.50;71.00;;;;;;5056108;28;20517;-80
2022/08/21 09:29:39;;;;;;;3.30;1.90;;;25.60;70.80;;;;;;5065511;28;20476;-81
2022/08/21 09:32:16;;;;;;;2.90;1.57;;;25.60;89.40;;;;;;5063186;28;20447;-81
2022/08/21 09:34:58;;;;;;;3.47;2.03;;;25.60;68.20;;;;;;5063854;28;21036;-81
2022/08/21 09:37:28;;;;;;;1.60;1.40;;;25.70;66.10;;;;;;5072704;28;20898;-81
2022/08/21 09:39:58;;;;;;;4.50;2.40;;;25.70;67.30;;;;;;5072505;28;20469;-81
2022/08/21 09:42:31;;;;;;;2.30;1.60;;;25.70;64.20;;;;;;5072381;28;20473;-81
2022/08/21 09:45:11;;;;;;;2.30;2.10;;;25.70;63.10;;;;;;5065933;28;20473;-80
2022/08/21 09:47:41;;;;;;;1.83;1.70;;;25.70;61.60;;;;;;5071391;28;20462;-81
2022/08/21 09:50:12;;;;;;;2.80;1.63;;;25.80;68.20;;;;;;5072488;28;20446;-81
2022/08/21 09:52:51;;;;;;;1.87;1.40;;;25.90;67.40;;;;;;5072584;28;20454;-80
2022/08/21 09:58:11;;;;;;;5.33;2.07;;;26.00;65.90;;;;;;5058179;28;20582;-81
2022/08/21 10:00:39;;;;;;;1.83;1.37;;;26.00;65.30;;;;;;5061710;28;20495;-81
2022/08/21 10:03:18;;;;;;;2.20;1.60;;;26.10;68.30;;;;;;5070878;28;20611;-82
2022/08/21 10:05:56;;;;;;;2.10;1.73;;;26.20;64.80;;;;;;5071621;28;20457;-82
2022/08/21 10:08:28;;;;;;;2.67;2.10;;;26.20;63.30;;;;;;5072772;28;20458;-82
2022/08/21 10:11:02;;;;;;;2.87;1.67;;;26.30;64.40;;;;;;5070654;28;20450;-82
2022/08/21 10:13:47;;;;;;;2.83;1.47;;;26.30;65.00;;;;;;5071557;28;20486;-82
2022/08/21 10:16:31;;;;;;;1.97;1.70;;;26.30;63.00;;;;;;5072199;28;20455;-82
2022/08/21 10:19:13;;;;;;;4.00;2.00;;;26.40;62.90;;;;;;5070455;28;20458;-82
2022/08/21 10:21:56;;;;;;;1.80;1.60;;;26.40;62.50;;;;;;5072197;28;20587;-81
2022/08/21 10:24:32;;;;;;;3.20;1.60;;;26.50;81.60;;;;;;5071838;28;20517;-81
2022/08/21 10:27:15;;;;;;;1.83;1.73;;;26.40;61.20;;;;;;5071705;28;20965;-82
2022/08/21 10:29:52;;;;;;;6.07;2.40;;;26.50;59.70;;;;;;5059948;28;20445;-82
2022/08/21 10:32:36;;;;;;;1.70;1.50;;;26.50;60.00;;;;;;5061284;28;20473;-82
2022/08/21 10:35:13;;;;;;;4.87;2.37;;;26.60;60.80;;;;;;5056589;28;20532;-83
2022/08/21 10:37:52;;;;;;;3.00;1.57;;;26.70;61.40;;;;;;5071816;28;20485;-82
2022/08/21 10:40:30;;;;;;;2.67;2.10;;;26.70;60.90;;;;;;5071713;28;20461;-82
2022/08/21 10:43:09;;;;;;;1.93;1.60;;;26.70;60.20;;;;;;5070366;28;20461;-82
2022/08/21 10:45:49;;;;;;;1.77;1.67;;;26.70;58.00;;;;;;5072227;28;20447;-82
2022/08/21 10:48:28;;;;;;;1.70;1.60;;;26.70;58.10;;;;;;5072123;28;20821;-81
2022/08/21 10:51:06;;;;;;;3.10;1.50;;;26.70;57.90;;;;;;5067323;28;20457;-82
2022/08/21 10:53:45;;;;;;;2.27;1.83;;;26.70;59.50;;;;;;5069508;28;21037;-81
2022/08/21 10:56:18;;;;;;;3.20;1.70;;;26.80;59.20;;;;;;5071597;28;20522;-82
2022/08/21 10:59:05;;;;;;;3.10;1.77;;;26.80;59.60;;;;;;5071781;28;20544;-81
2022/08/21 11:01:38;;;;;;;1.70;1.50;;;26.90;58.70;;;;;;5071604;28;20473;-82
2022/08/21 11:04:13;;;;;;;2.43;1.77;;;26.90;59.30;;;;;;5071364;28;20462;-83
2022/08/21 11:06:47;;;;;;;1.50;1.40;;;26.90;60.80;;;;;;5071552;28;20458;-82
2022/08/21 11:09:18;;;;;;;1.63;1.53;;;27.00;62.30;;;;;;5062394;28;20463;-81
2022/08/21 11:11:53;;;;;;;2.40;1.53;;;27.00;59.50;;;;;;5069314;28;20538;-82
2022/08/21 11:14:48;;;;;;;1.87;1.70;;;27.00;58.60;;;;;;5071232;28;20479;-82
2022/08/21 11:17:23;;;;;;;3.23;2.40;;;27.00;60.00;;;;;;5056448;28;20513;-82
2022/08/21 11:19:55;;;;;;;2.03;1.73;;;27.00;59.90;;;;;;5071141;28;20458;-82
2022/08/21 11:22:34;;;;;;;2.20;1.80;;;27.00;76.60;;;;;;5064395;28;20993;-82
2022/08/21 11:25:10;;;;;;;3.07;1.80;;;27.00;58.60;;;;;;5064279;28;20467;-82
2022/08/21 11:27:44;;;;;;;1.93;1.70;;;27.00;59.20;;;;;;5069830;28;20706;-82
2022/08/21 11:30:13;;;;;;;2.43;1.63;;;27.00;60.70;;;;;;5064984;28;20449;-82
2022/08/21 11:32:58;;;;;;;2.17;1.40;;;27.10;62.60;;;;;;5065122;28;20523;-82
2022/08/21 11:35:34;;;;;;;2.30;1.50;;;27.10;62.30;;;;;;5069327;28;20557;-82
2022/08/21 11:38:27;;;;;;;2.67;1.60;;;27.20;64.40;;;;;;5071222;28;20470;-82
2022/08/21 11:41:17;;;;;;;2.33;1.80;;;27.30;64.80;;;;;;5061817;28;20535;-82
2022/08/21 11:43:48;;;;;;;2.90;1.73;;;27.40;67.80;;;;;;5068989;28;20515;-82
2022/08/21 11:46:25;;;;;;;1.87;1.70;;;27.50;70.10;;;;;;5070805;28;20995;-82
2022/08/21 11:49:06;;;;;;;2.20;1.83;;;27.60;68.90;;;;;;5070666;28;20795;-82
2022/08/21 11:51:39;;;;;;;2.90;2.00;;;27.60;68.40;;;;;;5071368;28;20473;-82
2022/08/21 11:54:17;;;;;;;2.03;1.67;;;27.60;67.30;;;;;;5070364;28;20885;-83
2022/08/21 11:56:51;;;;;;;2.27;2.07;;;27.60;66.80;;;;;;5057865;28;20478;-82
2022/08/21 11:59:23;;;;;;;2.77;2.10;;;27.60;69.70;;;;;;5062800;28;20490;-81
2022/08/21 12:01:52;;;;;;;2.90;1.67;;;27.70;69.70;;;;;;5058102;28;20513;-82
2022/08/21 12:04:27;;;;;;;1.73;1.30;;;27.70;70.40;;;;;;5070106;28;20467;-84
2022/08/21 12:06:56;;;;;;;2.10;1.90;;;27.70;68.50;;;;;;5068556;28;20454;-82
2022/08/21 12:09:34;;;;;;;3.47;1.57;;;27.70;71.20;;;;;;5070121;28;20526;-83
2022/08/21 12:12:06;;;;;;;1.57;1.47;;;27.70;66.10;;;;;;5069109;28;21041;-82
2022/08/21 12:14:40;;;;;;;3.23;1.93;;;27.60;63.80;;;;;;5070567;28;20565;-82
2022/08/21 12:17:17;;;;;;;2.70;2.50;;;27.60;61.90;;;;;;5069719;28;20484;-82
2022/08/21 12:19:58;;;;;;;5.50;2.07;;;27.50;61.10;;;;;;5069781;28;20517;-81
2022/08/21 12:22:38;;;;;;;1.60;1.50;;;27.40;61.20;;;;;;5070173;28;20458;-82
2022/08/21 12:25:17;;;;;;;2.10;1.67;;;27.40;62.60;;;;;;5069531;28;20470;-81
2022/08/21 12:27:51;;;;;;;2.60;1.50;;;27.50;63.40;;;;;;5065983;28;20486;-82
2022/08/21 12:30:24;;;;;;;1.80;1.70;;;27.60;64.50;;;;;;5060967;28;20481;-82
2022/08/21 12:33:00;;;;;;;3.10;1.67;;;27.60;64.40;;;;;;5066482;28;20483;-82
2022/08/21 12:35:34;;;;;;;3.10;1.93;;;27.70;65.20;;;;;;5062324;28;20495;-82
2022/08/21 12:38:09;;;;;;;2.20;1.70;;;27.70;64.40;;;;;;5069732;28;20478;-82
2022/08/21 12:40:43;;;;;;;2.13;1.80;;;27.70;64.20;;;;;;5069563;28;20508;-82
2022/08/21 12:43:16;;;;;;;1.97;1.60;;;27.70;62.70;;;;;;5068534;28;20520;-81
2022/08/21 12:45:47;;;;;;;3.80;1.90;;;27.80;64.70;;;;;;5069026;28;20442;-82
2022/08/21 12:48:22;;;;;;;2.17;1.50;;;27.80;65.00;;;;;;5069743;28;20443;-82
2022/08/21 12:50:54;;;;;;;2.80;1.50;;;27.80;65.60;;;;;;5068618;28;20542;-82
2022/08/21 12:53:30;;;;;;;2.83;1.60;;;27.90;67.30;;;;;;5069526;28;20520;-82
2022/08/21 12:56:03;;;;;;;2.10;1.90;;;27.90;64.10;;;;;;5068964;28;20454;-82
2022/08/21 12:58:32;;;;;;;3.63;2.00;;;27.90;62.60;;;;;;5069510;28;20477;-82
2022/08/21 13:01:04;;;;;;;2.60;1.70;;;27.80;61.30;;;;;;5069938;28;20459;-82
2022/08/21 13:03:36;;;;;;;2.23;1.47;;;27.80;62.40;;;;;;5063285;28;20471;-82
2022/08/21 13:06:05;;;;;;;2.90;2.43;;;27.80;63.80;;;;;;5060464;28;20511;-82
2022/08/21 13:08:37;;;;;;;12.03;6.40;;;27.80;83.10;;;;;;5068068;28;20454;-82
2022/08/21 13:11:15;;;;;;;3.90;3.10;;;27.80;64.50;;;;;;5067542;28;20795;-82
2022/08/21 13:13:44;;;;;;;3.70;2.40;;;27.80;65.60;;;;;;5069408;28;20994;-82